Weather at Stanhope Municipal Airport

Public forecast

Using degrees Celsius for public forecast. Weather courtesy of forecast.io.

Closest aviation weather report (METAR) to Stanhope Municipal Airport

Closest report is Muskoka Airport, 29.3 nm (54.3 km) WSW. Retrieved 2022/01/24 11:00 UTC (20 minutes ago):

CYQA 241100Z AUTO 17010KT 9SM -SN OVC046 M17/M20 A2977 RMK SLP109

Closest aviation forecast (TAF) to Stanhope Municipal Airport

Forecast is more than 12 hours old.

Closest forecast is Muskoka Airport, 29.3 nm (54.3 km) WSW. Retrieved 2022/01/23 13:42 UTC (22 hours ago):

TAF CYQA 231240Z 2313/2401 33008KT P6SM FEW050 BKN140 FM231500 32008KT P6SM SKC BECMG 2321/2323 VRB03KT RMK FCST BASED ON AUTO OBS NXT FCST BY 232000Z